ěÝzenÝ letovÚho provozu ╚eskÚ republiky
Letiste: LKBC Aktualizace: 19.01.2021 13:31:26  UTC
 METAR LKBC 19.01. 13:30 RRA
METAR LKBC 191330Z AUTO 14002KT 9999 OVC100 02/M05 Q1012=